createdAt,value
2019-01-16T00:02:50.419Z,98370.60
2019-01-16T00:05:55.302Z,98359.75
2019-01-16T00:08:49.363Z,98360.00
2019-01-16T00:11:42.104Z,98360.34
2019-01-16T00:14:30.671Z,98355.19
2019-01-16T00:17:15.727Z,98349.66
2019-01-16T00:20:03.887Z,98349.54
2019-01-16T00:22:51.611Z,98343.45
2019-01-16T00:25:48.870Z,98343.33
2019-01-16T00:28:37.299Z,98344.81
2019-01-16T00:31:29.640Z,98337.63
2019-01-16T00:34:18.309Z,98335.70
2019-01-16T00:37:18.285Z,98333.59
2019-01-16T00:40:09.093Z,98334.86
2019-01-16T00:42:57.242Z,98329.66
2019-01-16T00:45:49.759Z,98325.20
2019-01-16T00:48:54.202Z,98320.98
2019-01-16T00:51:49.836Z,98324.97
2019-01-16T00:54:37.986Z,98320.23
2019-01-16T00:57:19.243Z,98324.22
2019-01-16T01:00:15.277Z,98324.52
2019-01-16T01:03:07.556Z,98326.53
2019-01-16T01:06:01.434Z,98322.91
2019-01-16T01:08:50.859Z,98312.89
2019-01-16T01:11:37.270Z,98321.03
2019-01-16T01:14:19.071Z,98313.39
2019-01-16T01:17:08.012Z,98314.78
2019-01-16T01:20:00.275Z,98314.55
2019-01-16T01:22:41.041Z,98307.22
2019-01-16T01:25:29.389Z,98309.41
2019-01-16T01:28:07.698Z,98308.50
2019-01-16T01:30:55.980Z,98307.53
2019-01-16T01:33:44.665Z,98313.30
2019-01-16T01:36:46.131Z,98312.11
2019-01-16T01:39:34.260Z,98313.92
2019-01-16T01:42:29.969Z,98315.80
2019-01-16T01:45:19.406Z,98313.30
2019-01-16T01:48:09.103Z,98312.44
2019-01-16T01:51:17.151Z,98317.34
2019-01-16T01:53:58.678Z,98311.78
2019-01-16T01:56:51.012Z,98311.72
2019-01-16T01:59:39.360Z,98310.19
2019-01-16T02:02:34.667Z,98311.68
2019-01-16T02:05:23.618Z,98310.25
2019-01-16T02:08:13.246Z,98305.11
2019-01-16T02:11:15.186Z,98307.18
2019-01-16T02:14:02.845Z,98301.67
2019-01-16T02:16:42.921Z,98305.00
2019-01-16T02:19:28.361Z,98302.61
2019-01-16T02:22:16.849Z,98303.44
2019-01-16T02:25:09.050Z,98298.38
2019-01-16T02:27:56.894Z,98293.09
2019-01-16T02:30:46.961Z,98294.09
2019-01-16T02:33:35.776Z,98290.61
2019-01-16T02:36:16.883Z,98285.01
2019-01-16T02:38:59.141Z,98285.94
2019-01-16T02:41:47.214Z,98282.94
2019-01-16T02:44:39.953Z,98283.48
2019-01-16T02:47:29.478Z,98280.67
2019-01-16T02:50:17.994Z,98278.95
2019-01-16T02:53:17.540Z,98274.38
2019-01-16T02:56:25.382Z,98268.38
2019-01-16T02:59:15.086Z,98268.45
2019-01-16T03:02:13.606Z,98267.09
2019-01-16T03:05:02.303Z,98265.70
2019-01-16T03:07:40.550Z,98264.91
2019-01-16T03:10:29.101Z,98262.11
2019-01-16T03:13:12.753Z,98263.26
2019-01-16T03:16:14.351Z,98257.79
2019-01-16T03:19:13.340Z,98253.34
2019-01-16T03:22:04.025Z,98253.73
2019-01-16T03:24:52.428Z,98242.39
2019-01-16T03:27:41.158Z,98239.95
2019-01-16T03:30:43.465Z,98236.66
2019-01-16T03:33:31.640Z,98231.56
2019-01-16T03:36:11.407Z,98233.13
2019-01-16T03:38:49.543Z,98232.09
2019-01-16T03:41:26.751Z,98223.52
2019-01-16T03:44:17.721Z,98222.11
2019-01-16T03:47:05.878Z,98225.50
2019-01-16T03:49:54.242Z,98220.33
2019-01-16T03:52:42.868Z,98216.56
2019-01-16T03:55:47.462Z,98215.20
2019-01-16T03:58:32.382Z,98213.62
2019-01-16T04:01:22.148Z,98212.61
2019-01-16T04:03:59.984Z,98212.14
2019-01-16T04:06:48.391Z,98212.88
2019-01-16T04:09:41.339Z,98212.33
2019-01-16T04:12:37.361Z,98216.59
2019-01-16T04:15:42.610Z,98210.87
2019-01-16T04:18:26.245Z,98205.35
2019-01-16T04:21:21.695Z,98206.29
2019-01-16T04:24:23.597Z,98205.38
2019-01-16T04:27:31.578Z,98205.62
2019-01-16T04:30:10.544Z,98206.09
2019-01-16T04:32:55.349Z,98199.10
2019-01-16T04:35:47.829Z,98198.72
2019-01-16T04:38:36.058Z,98194.56
2019-01-16T04:41:21.695Z,98196.46
2019-01-16T04:44:11.901Z,98196.28
2019-01-16T04:47:13.459Z,98183.63
2019-01-16T04:49:54.774Z,98185.70
2019-01-16T04:52:44.657Z,98185.04
2019-01-16T04:55:40.545Z,98180.61
2019-01-16T04:58:32.848Z,98175.45
2019-01-16T05:01:21.211Z,98175.36
2019-01-16T05:04:21.726Z,98170.22
2019-01-16T05:07:17.462Z,98167.76
2019-01-16T05:10:13.070Z,98161.95
2019-01-16T05:13:05.334Z,98161.20
2019-01-16T05:15:54.756Z,98164.61
2019-01-16T05:18:48.056Z,98160.53
2019-01-16T05:21:40.498Z,98159.88
2019-01-16T05:24:29.779Z,98157.94
2019-01-16T05:27:22.568Z,98145.19
2019-01-16T05:30:11.971Z,98140.30
2019-01-16T05:32:53.154Z,98145.88
2019-01-16T05:35:35.990Z,98151.52
2019-01-16T05:38:27.507Z,98150.96
2019-01-16T05:41:32.789Z,98148.17
2019-01-16T05:44:28.685Z,98148.22
2019-01-16T05:47:37.070Z,98149.89
2019-01-16T05:50:28.461Z,98150.55
2019-01-16T05:53:16.779Z,98153.38
2019-01-16T05:56:00.883Z,98148.00
2019-01-16T05:58:42.831Z,98150.18
2019-01-16T06:01:39.457Z,98147.13
2019-01-16T06:04:37.917Z,98142.13
2019-01-16T06:07:33.507Z,98138.63
2019-01-16T06:10:23.438Z,98132.67
2019-01-16T06:13:12.220Z,98133.66
2019-01-16T06:15:51.744Z,98140.53
2019-01-16T06:18:47.728Z,98142.67
2019-01-16T06:21:49.740Z,98131.30
2019-01-16T06:24:42.039Z,98131.39
2019-01-16T06:27:37.332Z,98133.22
2019-01-16T06:30:36.237Z,98124.38
2019-01-16T06:33:17.092Z,98124.75
2019-01-16T06:36:15.434Z,98123.91
2019-01-16T06:39:07.664Z,98118.86
2019-01-16T06:41:56.399Z,98097.94
2019-01-16T06:44:45.933Z,98082.70
2019-01-16T06:47:36.534Z,98078.77
2019-01-16T06:50:39.763Z,98085.18
2019-01-16T06:53:42.327Z,98091.55
2019-01-16T06:56:30.008Z,98089.11
2019-01-16T06:59:12.672Z,98097.38
2019-01-16T07:02:11.697Z,98104.37
2019-01-16T07:05:13.677Z,98098.56
2019-01-16T07:08:13.211Z,98093.19
2019-01-16T07:11:01.266Z,98088.08
2019-01-16T07:13:42.827Z,98081.67
2019-01-16T07:16:38.513Z,98080.87
2019-01-16T07:19:26.689Z,98088.16
2019-01-16T07:22:14.999Z,98081.14
2019-01-16T07:25:03.076Z,98090.77
2019-01-16T07:28:04.429Z,98089.86
2019-01-16T07:30:52.952Z,98091.10
2019-01-16T07:33:42.457Z,98091.72
2019-01-16T07:36:28.061Z,98090.44
2019-01-16T07:39:20.185Z,98091.72
2019-01-16T07:42:16.479Z,98086.07
2019-01-16T07:45:04.188Z,98091.14
2019-01-16T07:48:02.008Z,98088.20
2019-01-16T07:50:50.540Z,98082.73
2019-01-16T07:53:58.456Z,98082.88
2019-01-16T07:56:47.883Z,98084.16
2019-01-16T07:59:40.273Z,98080.41
2019-01-16T08:02:28.538Z,98077.49
2019-01-16T08:05:17.176Z,98084.50
2019-01-16T08:08:24.954Z,98084.06
2019-01-16T08:11:23.925Z,98078.41
2019-01-16T08:14:13.646Z,98076.85
2019-01-16T08:16:56.525Z,98072.24
2019-01-16T08:19:48.792Z,98069.30
2019-01-16T08:22:40.281Z,98075.47
2019-01-16T08:25:38.613Z,98073.27
2019-01-16T08:28:27.623Z,98071.03
2019-01-16T08:31:16.567Z,98069.11
2019-01-16T08:34:05.976Z,98064.23
2019-01-16T08:36:57.088Z,98060.92
2019-01-16T08:39:45.384Z,98059.93
2019-01-16T08:42:33.956Z,98053.86
2019-01-16T08:45:29.500Z,98055.63
2019-01-16T08:48:34.254Z,98054.91
2019-01-16T08:51:27.131Z,98054.78
2019-01-16T08:54:24.244Z,98050.98
2019-01-16T08:57:10.959Z,98048.48
2019-01-16T08:59:59.750Z,98043.63
2019-01-16T09:02:58.444Z,98052.97
2019-01-16T09:05:54.058Z,98062.06
2019-01-16T09:08:43.828Z,98058.06
2019-01-16T09:11:32.214Z,98060.97
2019-01-16T09:14:30.922Z,98053.24
2019-01-16T09:17:29.283Z,98049.73
2019-01-16T09:20:17.960Z,98053.09
2019-01-16T09:23:01.183Z,98045.33
2019-01-16T09:25:56.710Z,98042.37
2019-01-16T09:28:46.158Z,98042.63
2019-01-16T09:31:41.499Z,98029.98
2019-01-16T09:34:43.067Z,98034.67
2019-01-16T09:37:38.908Z,98029.27
2019-01-16T09:40:27.423Z,98027.84
2019-01-16T09:43:21.772Z,98022.22
2019-01-16T09:46:14.945Z,98017.81
2019-01-16T09:49:04.499Z,98012.61
2019-01-16T09:52:05.852Z,98013.63
2019-01-16T09:54:54.438Z,98000.66
2019-01-16T09:57:44.298Z,97988.78
2019-01-16T10:00:42.728Z,97992.42
2019-01-16T10:03:37.082Z,97993.86
2019-01-16T10:06:29.373Z,97985.05
2019-01-16T10:09:17.834Z,97978.77
2019-01-16T10:12:06.145Z,97974.86
2019-01-16T10:14:55.616Z,97972.78
2019-01-16T10:17:57.293Z,97967.35
2019-01-16T10:20:59.245Z,97955.02
2019-01-16T10:23:48.683Z,97948.63
2019-01-16T10:26:44.063Z,97943.28
2019-01-16T10:29:23.319Z,97948.65
2019-01-16T10:32:07.629Z,97944.91
2019-01-16T10:35:12.399Z,97950.05
2019-01-16T10:38:10.785Z,97947.02
2019-01-16T10:40:56.202Z,97944.04
2019-01-16T10:43:45.882Z,97943.77
2019-01-16T10:46:38.166Z,97943.04
2019-01-16T10:49:28.166Z,97951.55
2019-01-16T10:52:13.621Z,97944.65
2019-01-16T10:55:01.754Z,97939.76
2019-01-16T10:58:09.638Z,97936.11
2019-01-16T11:01:02.079Z,97919.78
2019-01-16T11:03:51.714Z,97906.09
2019-01-16T11:06:39.874Z,97898.61
2019-01-16T11:09:23.718Z,97894.44
2019-01-16T11:12:12.330Z,97893.41
2019-01-16T11:14:57.196Z,97884.44
2019-01-16T11:18:02.033Z,97880.39
2019-01-16T11:20:43.836Z,97871.23
2019-01-16T11:23:45.387Z,97868.86
2019-01-16T11:26:41.258Z,97868.60
2019-01-16T11:29:42.941Z,97863.67
2019-01-16T11:32:35.125Z,97854.83
2019-01-16T11:35:35.654Z,97856.05
2019-01-16T11:38:37.443Z,97851.87
2019-01-16T11:41:42.695Z,97846.70
2019-01-16T11:44:32.202Z,97846.53
2019-01-16T11:47:20.531Z,97841.17
2019-01-16T11:50:18.428Z,97838.03
2019-01-16T11:53:04.554Z,97825.86
2019-01-16T11:55:54.698Z,97827.63
2019-01-16T11:58:51.994Z,97821.08
2019-01-16T12:01:40.161Z,97824.31
2019-01-16T12:04:25.345Z,97824.14
2019-01-16T12:07:18.323Z,97820.29
2019-01-16T12:10:06.779Z,97806.80
2019-01-16T12:12:47.535Z,97800.45
2019-01-16T12:15:36.929Z,97790.75
2019-01-16T12:18:25.819Z,97792.11
2019-01-16T12:21:14.754Z,97778.02
2019-01-16T12:23:58.672Z,97770.20
2019-01-16T12:26:48.184Z,97769.08
2019-01-16T12:29:47.965Z,97766.14
2019-01-16T12:32:40.198Z,97759.83
2019-01-16T12:35:32.887Z,97763.72
2019-01-16T12:38:26.147Z,97759.86
2019-01-16T12:41:30.694Z,97753.17
2019-01-16T12:44:20.705Z,97740.15
2019-01-16T12:47:29.078Z,97733.86
2019-01-16T12:50:15.633Z,97732.70
2019-01-16T12:53:09.154Z,97728.88
2019-01-16T12:55:59.715Z,97721.49
2019-01-16T12:58:47.884Z,97716.71
2019-01-16T13:01:49.423Z,97722.45
2019-01-16T13:04:41.624Z,97723.04
2019-01-16T13:07:46.497Z,97719.22
2019-01-16T13:10:34.657Z,97720.20
2019-01-16T13:13:39.493Z,97722.39
2019-01-16T13:16:32.143Z,97718.62
2019-01-16T13:19:20.822Z,97714.13
2019-01-16T13:22:14.376Z,97720.58
2019-01-16T13:25:13.770Z,97717.86
2019-01-16T13:28:09.108Z,97711.08
2019-01-16T13:31:01.377Z,97703.30
2019-01-16T13:33:40.848Z,97694.06
2019-01-16T13:36:30.958Z,97697.65
2019-01-16T13:39:20.130Z,97691.17
2019-01-16T13:42:14.656Z,97684.16
2019-01-16T13:44:59.411Z,97679.64
2019-01-16T13:47:46.361Z,97682.75
2019-01-16T13:50:51.403Z,97677.13
2019-01-16T13:53:39.569Z,97671.93
2019-01-16T13:56:32.490Z,97666.86
2019-01-16T13:59:21.059Z,97660.20
2019-01-16T14:02:02.944Z,97651.94
2019-01-16T14:05:01.509Z,97647.41
2019-01-16T14:07:50.599Z,97645.20
2019-01-16T14:10:30.547Z,97641.19
2019-01-16T14:13:32.692Z,97646.25
2019-01-16T14:16:34.736Z,97634.62
2019-01-16T14:19:31.150Z,97632.00
2019-01-16T14:22:20.950Z,97625.02
2019-01-16T14:25:05.901Z,97621.05
2019-01-16T14:28:08.191Z,97619.55
2019-01-16T14:31:10.092Z,97618.66
2019-01-16T14:33:58.413Z,97618.33
2019-01-16T14:36:46.846Z,97608.77
2019-01-16T14:39:48.164Z,97610.95
2019-01-16T14:42:39.101Z,97606.54
2019-01-16T14:45:46.768Z,97603.19
2019-01-16T14:48:45.968Z,97601.26
2019-01-16T14:51:27.675Z,97603.66
2019-01-16T14:54:16.052Z,97592.33
2019-01-16T14:57:18.486Z,97592.55
2019-01-16T15:00:08.051Z,97595.22
2019-01-16T15:03:03.538Z,97586.84
2019-01-16T15:05:57.920Z,97581.64
2019-01-16T15:08:40.407Z,97574.58
2019-01-16T15:11:31.403Z,97572.16
2019-01-16T15:14:21.263Z,97572.83
2019-01-16T15:17:08.487Z,97566.83
2019-01-16T15:20:00.816Z,97567.83
2019-01-16T15:22:56.623Z,97568.88
2019-01-16T15:25:49.660Z,97569.87
2019-01-16T15:28:57.957Z,97567.16
2019-01-16T15:31:47.533Z,97560.91
2019-01-16T15:34:40.171Z,97561.37
2019-01-16T15:37:20.151Z,97559.58
2019-01-16T15:40:13.833Z,97549.16
2019-01-16T15:43:03.545Z,97545.13
2019-01-16T15:45:52.462Z,97541.38
2019-01-16T15:48:40.890Z,97541.01
2019-01-16T15:51:28.194Z,97538.91
2019-01-16T15:54:12.105Z,97530.94
2019-01-16T15:57:00.620Z,97533.04
2019-01-16T15:59:49.784Z,97531.42
2019-01-16T16:03:00.173Z,97524.87
2019-01-16T16:05:48.540Z,97524.81
2019-01-16T16:08:53.316Z,97525.33
2019-01-16T16:11:44.164Z,97518.95
2019-01-16T16:14:30.492Z,97520.13
2019-01-16T16:17:26.034Z,97511.94
2019-01-16T16:20:14.694Z,97503.55
2019-01-16T16:23:10.006Z,97507.83
2019-01-16T16:26:11.733Z,97502.91
2019-01-16T16:29:02.030Z,97500.19
2019-01-16T16:31:51.646Z,97495.60
2019-01-16T16:34:33.799Z,97497.70
2019-01-16T16:37:36.596Z,97495.75
2019-01-16T16:40:20.561Z,97495.82
2019-01-16T16:43:14.926Z,97490.84
2019-01-16T16:46:17.618Z,97486.97
2019-01-16T16:49:12.927Z,97485.03
2019-01-16T16:52:01.170Z,97485.67
2019-01-16T16:54:49.301Z,97480.47
2019-01-16T16:57:51.574Z,97475.20
2019-01-16T17:00:41.844Z,97473.27
2019-01-16T17:03:31.650Z,97469.84
2019-01-16T17:06:19.872Z,97463.92
2019-01-16T17:09:19.835Z,97457.22
2019-01-16T17:12:29.355Z,97459.19
2019-01-16T17:15:19.021Z,97457.08
2019-01-16T17:18:12.023Z,97451.80
2019-01-16T17:21:01.031Z,97449.10
2019-01-16T17:23:49.583Z,97449.92
2019-01-16T17:26:37.992Z,97453.05
2019-01-16T17:29:26.777Z,97451.42
2019-01-16T17:32:05.039Z,97449.16
2019-01-16T17:34:54.846Z,97442.27
2019-01-16T17:37:42.966Z,97438.02
2019-01-16T17:40:37.498Z,97444.14
2019-01-16T17:43:25.737Z,97433.64
2019-01-16T17:46:24.585Z,97428.81
2019-01-16T17:49:18.477Z,97427.97
2019-01-16T17:52:06.680Z,97423.67
2019-01-16T17:55:14.675Z,97426.99
2019-01-16T17:58:05.940Z,97422.00
2019-01-16T18:00:50.213Z,97413.15
2019-01-16T18:03:38.461Z,97414.49
2019-01-16T18:06:26.752Z,97409.51
2019-01-16T18:09:11.664Z,97406.33
2019-01-16T18:12:04.159Z,97401.87
2019-01-16T18:14:54.136Z,97396.41
2019-01-16T18:17:52.918Z,97395.63
2019-01-16T18:20:45.200Z,97394.87
2019-01-16T18:23:26.638Z,97393.81
2019-01-16T18:26:15.105Z,97390.31
2019-01-16T18:29:04.949Z,97389.98
2019-01-16T18:32:03.582Z,97380.88
2019-01-16T18:35:05.152Z,97383.44
2019-01-16T18:37:44.902Z,97382.52
2019-01-16T18:40:24.085Z,97380.53
2019-01-16T18:43:22.854Z,97386.23
2019-01-16T18:46:24.770Z,97382.38
2019-01-16T18:49:14.551Z,97383.34
2019-01-16T18:52:19.326Z,97386.06
2019-01-16T18:55:23.761Z,97385.15
2019-01-16T18:58:03.775Z,97385.33
2019-01-16T19:01:08.628Z,97385.91
2019-01-16T19:03:50.331Z,97387.53
2019-01-16T19:06:38.471Z,97374.31
2019-01-16T19:09:29.516Z,97377.63
2019-01-16T19:12:17.900Z,97378.33
2019-01-16T19:15:25.830Z,97376.54
2019-01-16T19:18:20.766Z,97378.01
2019-01-16T19:21:26.461Z,97373.26
2019-01-16T19:24:17.075Z,97374.50
2019-01-16T19:27:09.708Z,97362.74
2019-01-16T19:30:05.288Z,97342.27
2019-01-16T19:33:07.405Z,97344.80
2019-01-16T19:35:55.837Z,97342.63
2019-01-16T19:38:44.409Z,97352.03
2019-01-16T19:41:32.767Z,97357.39
2019-01-16T19:44:18.169Z,97354.00
2019-01-16T19:47:10.855Z,97356.91
2019-01-16T19:50:15.682Z,97354.21
2019-01-16T19:53:10.048Z,97361.20
2019-01-16T19:55:58.320Z,97353.17
2019-01-16T19:58:51.061Z,97351.29
2019-01-16T20:01:39.865Z,97352.44
2019-01-16T20:04:29.459Z,97350.30
2019-01-16T20:07:25.359Z,97353.39
2019-01-16T20:10:15.330Z,97350.45
2019-01-16T20:13:08.059Z,97348.70
2019-01-16T20:16:00.518Z,97350.86
2019-01-16T20:18:52.974Z,97354.30
2019-01-16T20:21:51.544Z,97357.55
2019-01-16T20:24:40.604Z,97361.63
2019-01-16T20:27:28.801Z,97356.84
2019-01-16T20:30:21.780Z,97354.03
2019-01-16T20:33:07.806Z,97351.05
2019-01-16T20:35:56.001Z,97353.41
2019-01-16T20:38:44.098Z,97350.33
2019-01-16T20:41:32.620Z,97349.27
2019-01-16T20:44:18.500Z,97345.81
2019-01-16T20:47:05.686Z,97342.22
2019-01-16T20:49:53.980Z,97341.77
2019-01-16T20:52:49.707Z,97339.50
2019-01-16T20:55:33.481Z,97340.34
2019-01-16T20:58:32.816Z,97336.48
2019-01-16T21:01:28.527Z,97338.92
2019-01-16T21:04:33.309Z,97338.64
2019-01-16T21:07:31.646Z,97329.06
2019-01-16T21:10:12.839Z,97327.89
2019-01-16T21:13:17.431Z,97327.76
2019-01-16T21:16:06.552Z,97321.94
2019-01-16T21:22:01.754Z,97315.52
2019-01-16T21:24:57.400Z,97312.64
2019-01-16T21:27:49.958Z,97315.24
2019-01-16T21:31:00.562Z,97313.83
2019-01-16T21:33:56.215Z,97321.58
2019-01-16T21:36:44.350Z,97309.66
2019-01-16T21:39:32.964Z,97310.66
2019-01-16T21:42:31.567Z,97310.58
2019-01-16T21:45:27.384Z,97309.29
2019-01-16T21:48:11.934Z,97308.31
2019-01-16T21:51:00.262Z,97306.00
2019-01-16T21:53:48.305Z,97307.03
2019-01-16T21:56:35.770Z,97299.30
2019-01-16T21:59:37.703Z,97298.84
2019-01-16T22:02:23.199Z,97306.09
2019-01-16T22:05:13.274Z,97304.20
2019-01-16T22:07:56.738Z,97296.22
2019-01-16T22:10:55.447Z,97298.90
2019-01-16T22:13:45.022Z,97307.71
2019-01-16T22:16:33.322Z,97301.62
2019-01-16T22:19:22.257Z,97299.03
2019-01-16T22:22:30.063Z,97297.16
2019-01-16T22:25:28.550Z,97299.36
2019-01-16T22:28:10.169Z,97291.66
2019-01-16T22:31:05.733Z,97293.69
2019-01-16T22:33:53.959Z,97289.53
2019-01-16T22:36:46.465Z,97291.78
2019-01-16T22:39:42.070Z,97290.22
2019-01-16T22:42:30.144Z,97285.11
2019-01-16T22:45:12.050Z,97285.86
2019-01-16T22:48:05.945Z,97278.95
2019-01-16T22:50:55.432Z,97279.48
2019-01-16T22:53:43.724Z,97287.13
2019-01-16T22:56:36.400Z,97285.17
2019-01-16T22:59:24.052Z,97280.16
2019-01-16T23:02:16.552Z,97279.69
2019-01-16T23:05:12.391Z,97273.47
2019-01-16T23:08:07.946Z,97271.89
2019-01-16T23:11:12.949Z,97268.94
2019-01-16T23:14:20.777Z,97265.91
2019-01-16T23:17:23.968Z,97258.48
2019-01-16T23:20:17.419Z,97254.84
2019-01-16T23:23:02.385Z,97254.36
2019-01-16T23:25:49.685Z,97249.80
2019-01-16T23:28:37.963Z,97254.00
2019-01-16T23:31:26.369Z,97251.84
2019-01-16T23:34:14.697Z,97252.05
2019-01-16T23:37:03.049Z,97252.28
2019-01-16T23:39:52.512Z,97260.61
2019-01-16T23:42:44.996Z,97261.02
2019-01-16T23:45:34.430Z,97259.91
2019-01-16T23:48:33.296Z,97259.25
2019-01-16T23:51:18.528Z,97253.90
2019-01-16T23:54:15.615Z,97253.82
2019-01-16T23:57:11.717Z,97248.04
